Time;durP1;ratioP1;P1;durP2;ratioP2;P2;SDS_P1;SDS_P2;PMS_P1;PMS_P2;Temp;Humidity;BMP_temperature;BMP_pressure;BME280_temperature;BME280_humidity;BME280_pressure;Samples;Min_cycle;Max_cycle;Signal;HPM_P1;HPM_P2
2022/11/16 00:01:16;;;;;;;6.35;4.50;;;;;;;;;;4913068;29;20290;-83
2022/11/16 00:03:42;;;;;;;8.10;4.30;;;;;;;;;;4930003;29;20048;-84
2022/11/16 00:06:09;;;;;;;6.90;4.47;;;;;;;;;;4914941;29;20028;-84
2022/11/16 00:08:37;;;;;;;6.18;4.28;;;;;;;;;;4932765;29;20099;-84
2022/11/16 00:11:10;;;;;;;6.32;4.13;;;;;;;;;;4910927;29;20031;-84
2022/11/16 00:13:36;;;;;;;5.32;3.72;;;;;;;;;;4915865;29;20627;-84
2022/11/16 00:16:03;;;;;;;6.57;4.30;;;;;;;;;;4915341;29;20024;-85
2022/11/16 00:18:28;;;;;;;6.55;4.15;;;;;;;;;;4922320;29;20031;-85
2022/11/16 00:20:54;;;;;;;6.00;4.40;;;;;;;;;;4911247;29;20039;-84
2022/11/16 00:23:20;;;;;;;4.95;3.78;;;;;;;;;;4930635;29;20032;-84
2022/11/16 00:25:45;;;;;;;6.63;4.00;;;;;;;;;;4926222;29;20032;-84
2022/11/16 00:28:11;;;;;;;6.10;4.35;;;;;;;;;;4931423;29;20373;-85
2022/11/16 00:30:37;;;;;;;5.43;3.92;;;;;;;;;;4913441;29;20118;-85
2022/11/16 00:33:03;;;;;;;6.22;3.97;;;;;;;;;;4909735;29;20087;-86
2022/11/16 00:35:29;;;;;;;6.03;3.42;;;;;;;;;;4922459;29;20023;-84
2022/11/16 00:37:54;;;;;;;6.75;4.38;;;;;;;;;;4927212;29;20050;-84
2022/11/16 00:40:20;;;;;;;6.30;4.13;;;;;;;;;;4934727;29;20032;-85
2022/11/16 00:42:45;;;;;;;6.57;4.13;;;;;;;;;;4911981;29;20039;-84
2022/11/16 00:45:13;;;;;;;5.60;3.97;;;;;;;;;;4901371;29;20032;-84
2022/11/16 00:47:38;;;;;;;5.68;3.80;;;;;;;;;;4916892;29;20054;-85
2022/11/16 00:50:04;;;;;;;6.35;4.30;;;;;;;;;;4930233;29;20023;-84
2022/11/16 00:52:30;;;;;;;7.32;4.47;;;;;;;;;;4910230;29;20580;-85
2022/11/16 00:54:55;;;;;;;7.20;4.55;;;;;;;;;;4903128;29;20060;-85
2022/11/16 00:57:21;;;;;;;6.38;4.50;;;;;;;;;;4908555;29;20123;-85
2022/11/16 00:59:46;;;;;;;6.53;4.50;;;;;;;;;;4911184;29;20031;-85
2022/11/16 01:02:12;;;;;;;6.95;4.28;;;;;;;;;;4920748;29;20062;-85
2022/11/16 01:04:37;;;;;;;7.32;4.32;;;;;;;;;;4923207;29;20046;-85
2022/11/16 01:07:02;;;;;;;6.68;4.93;;;;;;;;;;4913442;29;20032;-85
2022/11/16 01:09:28;;;;;;;7.55;4.90;;;;;;;;;;4925567;29;20035;-85
2022/11/16 01:12:11;;;;;;;7.72;4.97;;;;;;;;;;4925243;29;20036;-85
2022/11/16 01:14:42;;;;;;;7.25;4.80;;;;;;;;;;4912508;29;20059;-85
2022/11/16 01:17:07;;;;;;;8.05;5.03;;;;;;;;;;4924159;29;20158;-85
2022/11/16 01:19:33;;;;;;;6.10;4.22;;;;;;;;;;4907863;29;20118;-85
2022/11/16 01:21:59;;;;;;;6.00;4.30;;;;;;;;;;4926558;29;20036;-86
2022/11/16 01:24:25;;;;;;;6.78;5.03;;;;;;;;;;4920038;29;20456;-85
2022/11/16 01:26:55;;;;;;;6.60;4.22;;;;;;;;;;4910201;29;20040;-85
2022/11/16 01:29:23;;;;;;;6.28;4.55;;;;;;;;;;4910760;29;20027;-85
2022/11/16 01:31:48;;;;;;;5.95;4.53;;;;;;;;;;4915424;29;20035;-86
2022/11/16 01:34:14;;;;;;;6.32;4.10;;;;;;;;;;4910905;29;20095;-85
2022/11/16 01:36:39;;;;;;;5.85;4.43;;;;;;;;;;4907773;29;20028;-85
2022/11/16 01:39:05;;;;;;;7.25;4.45;;;;;;;;;;4906998;29;20512;-85
2022/11/16 01:41:31;;;;;;;6.70;4.60;;;;;;;;;;4920875;29;20031;-85
2022/11/16 01:44:00;;;;;;;6.80;4.82;;;;;;;;;;4921266;29;20465;-85
2022/11/16 01:46:27;;;;;;;6.78;4.35;;;;;;;;;;4906141;29;20123;-85
2022/11/16 01:49:13;;;;;;;6.18;4.45;;;;;;;;;;4913670;29;20035;-85
2022/11/16 01:51:42;;;;;;;5.68;4.30;;;;;;;;;;4912554;29;20535;-85
2022/11/16 01:54:11;;;;;;;7.40;4.88;;;;;;;;;;4904088;29;20027;-85
2022/11/16 01:56:38;;;;;;;4.88;3.80;;;;;;;;;;4914442;29;20031;-85
2022/11/16 01:59:04;;;;;;;6.38;4.20;;;;;;;;;;4917509;29;20106;-85
2022/11/16 02:01:29;;;;;;;5.93;4.40;;;;;;;;;;4920954;29;20464;-85
2022/11/16 02:03:55;;;;;;;6.43;4.32;;;;;;;;;;4927141;29;20058;-85
2022/11/16 02:06:31;;;;;;;5.53;4.13;;;;;;;;;;4912061;29;20119;-85
2022/11/16 02:12:43;;;;;;;7.28;3.67;;;;;;;;;;4919782;29;20053;-86
2022/11/16 02:15:36;;;;;;;6.23;4.40;;;;;;;;;;4909035;29;20380;-85
2022/11/16 02:18:13;;;;;;;4.97;3.77;;;;;;;;;;4914568;29;20028;-85
2022/11/16 02:21:06;;;;;;;5.65;3.92;;;;;;;;;;4897664;29;20028;-85
2022/11/16 02:24:07;;;;;;;7.13;4.72;;;;;;;;;;4922464;29;20027;-84
2022/11/16 02:26:47;;;;;;;6.95;4.20;;;;;;;;;;4846800;29;20166;-84
2022/11/16 02:29:34;;;;;;;6.38;4.57;;;;;;;;;;4917415;29;20151;-84
2022/11/16 02:32:03;;;;;;;6.88;4.47;;;;;;;;;;4905251;29;20031;-84
2022/11/16 02:34:38;;;;;;;6.75;4.78;;;;;;;;;;4924063;29;20120;-84
2022/11/16 02:37:08;;;;;;;6.18;4.65;;;;;;;;;;4909520;29;20384;-84
2022/11/16 02:39:36;;;;;;;5.57;4.20;;;;;;;;;;4905108;29;20036;-84
2022/11/16 02:42:04;;;;;;;7.22;4.18;;;;;;;;;;4922805;29;20051;-84
2022/11/16 02:44:34;;;;;;;6.25;4.43;;;;;;;;;;4910346;29;20107;-84
2022/11/16 02:47:04;;;;;;;5.82;4.35;;;;;;;;;;4912238;29;20429;-84
2022/11/16 02:49:33;;;;;;;5.60;4.35;;;;;;;;;;4920639;29;20389;-84
2022/11/16 02:51:59;;;;;;;6.53;4.38;;;;;;;;;;4925958;29;20023;-84
2022/11/16 02:54:25;;;;;;;5.85;4.10;;;;;;;;;;4912614;29;20031;-84
2022/11/16 02:57:03;;;;;;;6.00;4.15;;;;;;;;;;4909801;29;20038;-84
2022/11/16 02:59:45;;;;;;;6.97;4.07;;;;;;;;;;4905573;29;20107;-84
2022/11/16 03:02:26;;;;;;;7.03;4.60;;;;;;;;;;4910806;29;20073;-84
2022/11/16 03:05:06;;;;;;;6.47;4.63;;;;;;;;;;4921190;29;20031;-84
2022/11/16 03:07:39;;;;;;;6.22;4.65;;;;;;;;;;4908492;29;20500;-84
2022/11/16 03:10:05;;;;;;;6.25;4.63;;;;;;;;;;4924142;29;20043;-85
2022/11/16 03:12:34;;;;;;;6.03;4.55;;;;;;;;;;4912398;29;20039;-85
2022/11/16 03:15:10;;;;;;;6.65;5.10;;;;;;;;;;4919167;29;20047;-84
2022/11/16 03:17:48;;;;;;;6.93;5.15;;;;;;;;;;4912027;29;20044;-85
2022/11/16 03:20:19;;;;;;;7.38;5.50;;;;;;;;;;4928926;29;20487;-85
2022/11/16 03:22:47;;;;;;;8.20;5.10;;;;;;;;;;4911044;29;20035;-84
2022/11/16 03:25:17;;;;;;;6.53;4.97;;;;;;;;;;4910370;29;20414;-84
2022/11/16 03:27:51;;;;;;;6.97;4.63;;;;;;;;;;4918544;29;20380;-84
2022/11/16 03:30:19;;;;;;;6.20;4.63;;;;;;;;;;4925072;29;20032;-84
2022/11/16 03:32:56;;;;;;;6.65;4.55;;;;;;;;;;4917454;29;20389;-84
2022/11/16 03:35:26;;;;;;;6.43;4.70;;;;;;;;;;4910092;29;20035;-85
2022/11/16 03:37:54;;;;;;;7.28;4.38;;;;;;;;;;4923072;29;20074;-84
2022/11/16 03:40:23;;;;;;;6.93;4.90;;;;;;;;;;4927830;29;20043;-84
2022/11/16 03:42:52;;;;;;;6.60;4.80;;;;;;;;;;4912974;29;20066;-84
2022/11/16 03:45:18;;;;;;;6.85;5.07;;;;;;;;;;4914744;29;20036;-83
2022/11/16 03:47:45;;;;;;;7.05;5.03;;;;;;;;;;4907554;29;20035;-84
2022/11/16 03:50:10;;;;;;;6.70;4.57;;;;;;;;;;4925924;29;20111;-84
2022/11/16 03:52:36;;;;;;;5.95;4.40;;;;;;;;;;4916817;29;20119;-84
2022/11/16 03:55:02;;;;;;;5.93;3.85;;;;;;;;;;4908357;29;20063;-84
2022/11/16 03:57:28;;;;;;;6.85;4.05;;;;;;;;;;4911181;29;20024;-84
2022/11/16 03:59:53;;;;;;;5.45;3.80;;;;;;;;;;4928331;29;20134;-84
2022/11/16 04:02:18;;;;;;;5.20;3.90;;;;;;;;;;4909316;29;20042;-84
2022/11/16 04:24:15;;;;;;;5.13;3.83;;;;;;;;;;4932303;29;20175;-84
2022/11/16 04:29:32;;;;;;;6.10;4.18;;;;;;;;;;4927184;29;20038;-84
2022/11/16 04:40:10;;;;;;;7.05;4.38;;;;;;;;;;4928636;29;20051;-84
2022/11/16 04:42:35;;;;;;;6.07;4.07;;;;;;;;;;4930387;29;20030;-85
2022/11/16 04:47:47;;;;;;;5.20;4.03;;;;;;;;;;4926104;29;20035;-85
2022/11/16 04:50:13;;;;;;;6.85;4.32;;;;;;;;;;4910203;29;20048;-85
2022/11/16 04:52:38;;;;;;;7.07;4.15;;;;;;;;;;4905193;29;20118;-85
2022/11/16 04:55:04;;;;;;;5.00;3.88;;;;;;;;;;4916406;29;20455;-85
2022/11/16 04:57:29;;;;;;;5.82;3.40;;;;;;;;;;4924849;29;20043;-85
2022/11/16 04:59:57;;;;;;;5.03;3.40;;;;;;;;;;4920854;29;20492;-85
2022/11/16 05:02:25;;;;;;;4.10;2.85;;;;;;;;;;4926114;29;20488;-85
2022/11/16 05:04:50;;;;;;;4.82;2.90;;;;;;;;;;4916534;29;20039;-85
2022/11/16 05:07:19;;;;;;;4.10;2.80;;;;;;;;;;4908174;29;20045;-85
2022/11/16 05:09:50;;;;;;;3.83;2.40;;;;;;;;;;4909950;29;20035;-85
2022/11/16 05:12:25;;;;;;;6.88;2.58;;;;;;;;;;4925658;29;20064;-85
2022/11/16 05:14:56;;;;;;;4.70;2.58;;;;;;;;;;4907640;29;20103;-85
2022/11/16 05:17:23;;;;;;;4.63;2.55;;;;;;;;;;4909176;29;20075;-85
2022/11/16 05:22:32;;;;;;;4.93;2.15;;;;;;;;;;4924518;29;20091;-84
2022/11/16 05:24:58;;;;;;;4.05;2.10;;;;;;;;;;4926515;29;20039;-85
2022/11/16 05:27:32;;;;;;;3.50;2.25;;;;;;;;;;4922769;29;20059;-85
2022/11/16 05:29:58;;;;;;;3.50;2.00;;;;;;;;;;4907563;29;20496;-85
2022/11/16 05:32:25;;;;;;;4.32;1.90;;;;;;;;;;4908888;29;20075;-85
2022/11/16 05:34:50;;;;;;;3.00;1.90;;;;;;;;;;4907134;29;20032;-85
2022/11/16 05:37:17;;;;;;;4.75;1.98;;;;;;;;;;4909269;29;20366;-85
2022/11/16 05:39:43;;;;;;;3.28;1.75;;;;;;;;;;4918870;29;20028;-85
2022/11/16 05:42:09;;;;;;;3.90;1.80;;;;;;;;;;4912601;29;20082;-85
2022/11/16 05:44:37;;;;;;;4.25;1.90;;;;;;;;;;4905147;29;20107;-84
2022/11/16 05:47:05;;;;;;;3.70;1.63;;;;;;;;;;4907572;29;20059;-85
2022/11/16 05:49:31;;;;;;;3.20;1.45;;;;;;;;;;4907896;29;20099;-85
2022/11/16 05:52:01;;;;;;;3.67;1.80;;;;;;;;;;4926310;29;20462;-85
2022/11/16 05:54:27;;;;;;;4.68;1.80;;;;;;;;;;4913620;29;20023;-85
2022/11/16 05:56:58;;;;;;;4.88;1.40;;;;;;;;;;4924847;29;20038;-85
2022/11/16 05:59:28;;;;;;;3.92;1.50;;;;;;;;;;4906567;29;20024;-85
2022/11/16 06:01:56;;;;;;;3.88;1.50;;;;;;;;;;4900909;29;20070;-85
2022/11/16 06:04:31;;;;;;;2.67;1.27;;;;;;;;;;4908730;29;20051;-85
2022/11/16 06:06:57;;;;;;;2.83;1.27;;;;;;;;;;4903699;29;20052;-85
2022/11/16 06:09:22;;;;;;;3.40;1.55;;;;;;;;;;4920155;29;20433;-84
2022/11/16 06:11:48;;;;;;;2.78;1.30;;;;;;;;;;4908257;29;20031;-85
2022/11/16 06:14:39;;;;;;;2.30;1.17;;;;;;;;;;4908650;29;20115;-84
2022/11/16 06:17:07;;;;;;;3.70;1.40;;;;;;;;;;4908115;29;20030;-85
2022/11/16 06:19:41;;;;;;;3.72;1.60;;;;;;;;;;4917770;29;20032;-84
2022/11/16 06:22:06;;;;;;;3.45;1.30;;;;;;;;;;4918176;29;20027;-85
2022/11/16 06:24:32;;;;;;;3.80;1.50;;;;;;;;;;4906727;29;20400;-85
2022/11/16 06:26:58;;;;;;;3.78;1.38;;;;;;;;;;4906332;29;20036;-84
2022/11/16 06:29:23;;;;;;;2.22;1.30;;;;;;;;;;4916113;29;20063;-84
2022/11/16 06:31:54;;;;;;;1.83;1.10;;;;;;;;;;4906431;29;20040;-85
2022/11/16 06:37:42;;;;;;;2.33;1.17;;;;;;;;;;4912966;29;20047;-85
2022/11/16 06:40:09;;;;;;;2.90;1.35;;;;;;;;;;4916241;29;20027;-84
2022/11/16 06:42:44;;;;;;;3.33;1.15;;;;;;;;;;4905361;29;21560;-84
2022/11/16 06:48:35;;;;;;;3.58;1.58;;;;;;;;;;4915536;29;20039;-84
2022/11/16 06:57:45;;;;;;;3.88;1.58;;;;;;;;;;4929771;29;20051;-85
2022/11/16 07:00:11;;;;;;;3.38;1.40;;;;;;;;;;4917614;29;20067;-85
2022/11/16 07:02:37;;;;;;;2.67;1.17;;;;;;;;;;4932223;29;20056;-85
2022/11/16 07:05:18;;;;;;;2.50;1.20;;;;;;;;;;4917969;29;20035;-84
2022/11/16 07:07:43;;;;;;;2.30;1.10;;;;;;;;;;4919264;29;20027;-85
2022/11/16 07:10:09;;;;;;;3.25;1.40;;;;;;;;;;4928741;29;20506;-85
2022/11/16 07:12:34;;;;;;;5.10;1.60;;;;;;;;;;4909369;29;20579;-84
2022/11/16 07:18:41;;;;;;;4.13;1.77;;;;;;;;;;4853733;29;20533;-84
2022/11/16 07:21:12;;;;;;;4.53;1.80;;;;;;;;;;4872256;29;20049;-84
2022/11/16 07:24:11;;;;;;;4.43;1.85;;;;;;;;;;4843028;29;20569;-85
2022/11/16 07:26:40;;;;;;;4.05;1.90;;;;;;;;;;4843663;29;20080;-85
2022/11/16 07:29:05;;;;;;;5.07;1.90;;;;;;;;;;4849427;29;20052;-85
2022/11/16 07:31:40;;;;;;;5.30;2.05;;;;;;;;;;4895857;29;20480;-85
2022/11/16 07:34:05;;;;;;;3.38;1.75;;;;;;;;;;4912363;29;20130;-85
2022/11/16 07:36:31;;;;;;;5.22;2.10;;;;;;;;;;4916835;29;20114;-85
2022/11/16 07:38:56;;;;;;;3.63;1.88;;;;;;;;;;4913222;29;20039;-85
2022/11/16 07:42:11;;;;;;;6.78;2.40;;;;;;;;;;4924662;29;20513;-85
2022/11/16 07:44:37;;;;;;;6.47;2.22;;;;;;;;;;4858275;29;20045;-85
2022/11/16 07:47:03;;;;;;;4.57;2.03;;;;;;;;;;4856637;29;20444;-86
2022/11/16 07:49:31;;;;;;;6.68;2.38;;;;;;;;;;4893316;29;20036;-86
2022/11/16 07:51:59;;;;;;;4.97;2.60;;;;;;;;;;4908260;29;20481;-86
2022/11/16 07:54:28;;;;;;;7.22;2.15;;;;;;;;;;4914731;29;20123;-86
2022/11/16 07:56:53;;;;;;;5.60;2.30;;;;;;;;;;4916524;29;20532;-85
2022/11/16 07:59:21;;;;;;;5.43;1.90;;;;;;;;;;4914425;29;20127;-86
2022/11/16 08:01:47;;;;;;;3.70;1.90;;;;;;;;;;4916055;29;20090;-86
2022/11/16 08:04:14;;;;;;;8.45;2.40;;;;;;;;;;4917497;29;20051;-86
2022/11/16 08:06:39;;;;;;;4.57;2.35;;;;;;;;;;4911899;29;20116;-86
2022/11/16 08:09:05;;;;;;;6.80;2.58;;;;;;;;;;4917096;29;20125;-86
2022/11/16 08:11:33;;;;;;;4.28;1.85;;;;;;;;;;4912293;29;20036;-86
2022/11/16 08:13:58;;;;;;;3.97;1.83;;;;;;;;;;4922147;29;20019;-86
2022/11/16 08:16:32;;;;;;;6.72;2.30;;;;;;;;;;4910816;29;20075;-86
2022/11/16 08:18:59;;;;;;;5.15;2.08;;;;;;;;;;4918515;29;20110;-85
2022/11/16 08:21:25;;;;;;;4.80;1.95;;;;;;;;;;4920377;29;20098;-85
2022/11/16 08:23:53;;;;;;;4.90;1.98;;;;;;;;;;4920615;29;20036;-85
2022/11/16 08:26:20;;;;;;;4.30;1.80;;;;;;;;;;4930850;29;20024;-86
2022/11/16 08:28:49;;;;;;;5.93;1.70;;;;;;;;;;4940084;29;20024;-86
2022/11/16 08:31:24;;;;;;;5.85;1.90;;;;;;;;;;4912328;29;20492;-86
2022/11/16 08:33:50;;;;;;;7.22;2.28;;;;;;;;;;4918479;29;20451;-85
2022/11/16 08:36:16;;;;;;;3.92;1.95;;;;;;;;;;4922319;29;20019;-86
2022/11/16 08:38:51;;;;;;;6.07;2.22;;;;;;;;;;4927276;29;20035;-86
2022/11/16 08:41:18;;;;;;;4.90;1.70;;;;;;;;;;4924398;29;20094;-86
2022/11/16 08:43:46;;;;;;;3.83;1.83;;;;;;;;;;4921849;29;20039;-86
2022/11/16 08:46:13;;;;;;;6.47;2.33;;;;;;;;;;4918589;29;20118;-86
2022/11/16 08:48:39;;;;;;;5.95;2.00;;;;;;;;;;4919707;29;20055;-86
2022/11/16 08:51:10;;;;;;;6.03;2.33;;;;;;;;;;4925085;29;20063;-86
2022/11/16 08:53:38;;;;;;;6.93;2.38;;;;;;;;;;4911571;29;20388;-87
2022/11/16 08:56:12;;;;;;;7.22;2.53;;;;;;;;;;4919363;29;20023;-86
2022/11/16 08:58:38;;;;;;;5.38;2.13;;;;;;;;;;4915895;29;20046;-86
2022/11/16 09:01:12;;;;;;;6.07;2.30;;;;;;;;;;4917426;29;20106;-87
2022/11/16 09:03:38;;;;;;;7.40;2.50;;;;;;;;;;4916932;29;20044;-86
2022/11/16 09:06:05;;;;;;;6.22;2.72;;;;;;;;;;4914443;29;20032;-85
2022/11/16 09:08:35;;;;;;;5.82;2.30;;;;;;;;;;4926602;29;20122;-86
2022/11/16 09:11:09;;;;;;;6.18;2.08;;;;;;;;;;4931487;29;20040;-86
2022/11/16 09:13:35;;;;;;;6.53;2.20;;;;;;;;;;4915743;29;20488;-86
2022/11/16 09:16:02;;;;;;;4.90;1.98;;;;;;;;;;4915065;29;20085;-86
2022/11/16 09:18:28;;;;;;;7.20;2.10;;;;;;;;;;4928610;29;20028;-86
2022/11/16 09:20:54;;;;;;;4.90;1.77;;;;;;;;;;4915142;29;20035;-86
2022/11/16 09:23:20;;;;;;;7.57;1.95;;;;;;;;;;4916645;29;20090;-87
2022/11/16 09:25:47;;;;;;;4.40;1.52;;;;;;;;;;4909672;29;20040;-86
2022/11/16 09:28:17;;;;;;;5.47;1.75;;;;;;;;;;4928970;29;20031;-86
2022/11/16 09:30:53;;;;;;;7.85;2.17;;;;;;;;;;4913877;29;20027;-86
2022/11/16 09:33:18;;;;;;;6.85;1.88;;;;;;;;;;4923635;29;20032;-86
2022/11/16 09:35:47;;;;;;;7.53;1.70;;;;;;;;;;4924621;29;20035;-86
2022/11/16 09:38:12;;;;;;;6.43;1.70;;;;;;;;;;4910626;29;20042;-87
2022/11/16 09:40:44;;;;;;;5.40;1.73;;;;;;;;;;4913506;29;20031;-87
2022/11/16 09:43:35;;;;;;;7.37;1.77;;;;;;;;;;4926949;29;20408;-86
2022/11/16 09:46:16;;;;;;;3.10;1.67;;;;;;;;;;4907370;29;20629;-86
2022/11/16 09:48:42;;;;;;;7.20;1.77;;;;;;;;;;4926441;29;20067;-86
2022/11/16 09:51:12;;;;;;;5.07;1.60;;;;;;;;;;4929734;29;20032;-87
2022/11/16 09:53:40;;;;;;;3.25;1.20;;;;;;;;;;4911553;29;20027;-86
2022/11/16 09:56:11;;;;;;;8.05;1.67;;;;;;;;;;4915102;29;20020;-86
2022/11/16 09:58:46;;;;;;;5.97;1.55;;;;;;;;;;4917283;29;20041;-86
2022/11/16 10:01:33;;;;;;;3.97;1.45;;;;;;;;;;4918903;29;20028;-86
2022/11/16 10:08:15;;;;;;;4.97;1.30;;;;;;;;;;4929814;29;20047;-87
2022/11/16 10:20:59;;;;;;;7.75;1.30;;;;;;;;;;4874872;29;20064;-86
2022/11/16 10:27:56;;;;;;;4.90;1.40;;;;;;;;;;4777162;29;20079;-86
2022/11/16 10:30:42;;;;;;;4.45;1.50;;;;;;;;;;4852040;29;20040;-87
2022/11/16 10:34:00;;;;;;;4.22;1.25;;;;;;;;;;4907465;29;20082;-87
2022/11/16 10:36:34;;;;;;;5.32;1.30;;;;;;;;;;4910328;29;20058;-86
2022/11/16 10:39:01;;;;;;;6.15;1.25;;;;;;;;;;4918652;29;20059;-88
2022/11/16 10:45:07;;;;;;;;;;;;;;;;;;;;;
2022/11/16 10:48:36;;;;;;;;;;;;;;;;;;;;;
2022/11/16 10:58:56;;;;;;;4.35;1.35;;;;;;;;;;4898685;29;20040;-87
2022/11/16 11:05:21;;;;;;;3.47;1.20;;;;;;;;;;4910508;29;20191;-87
2022/11/16 11:08:01;;;;;;;6.50;1.33;;;;;;;;;;4911896;29;20052;-86
2022/11/16 11:10:28;;;;;;;4.03;1.38;;;;;;;;;;4919378;29;20052;-87
2022/11/16 11:13:12;;;;;;;5.20;1.40;;;;;;;;;;4930702;29;20027;-87
2022/11/16 11:15:50;;;;;;;3.72;1.23;;;;;;;;;;4917932;29;20072;-86
2022/11/16 11:18:25;;;;;;;6.05;1.33;;;;;;;;;;4918006;29;20035;-87
2022/11/16 11:21:16;;;;;;;5.97;1.30;;;;;;;;;;4915891;29;20027;-86
2022/11/16 11:23:46;;;;;;;4.28;1.50;;;;;;;;;;4912663;29;20035;-87
2022/11/16 11:26:34;;;;;;;3.83;1.40;;;;;;;;;;4924036;29;20024;-86
2022/11/16 11:29:06;;;;;;;5.32;1.67;;;;;;;;;;4929266;29;20035;-86
2022/11/16 11:31:41;;;;;;;6.47;1.60;;;;;;;;;;4924488;29;20488;-87
2022/11/16 11:34:28;;;;;;;4.40;1.50;;;;;;;;;;4927393;29;20484;-86
2022/11/16 11:37:01;;;;;;;4.20;1.17;;;;;;;;;;4928074;29;20047;-86
2022/11/16 11:39:33;;;;;;;4.28;1.67;;;;;;;;;;4918615;29;20127;-86
2022/11/16 11:42:16;;;;;;;7.05;1.52;;;;;;;;;;4931280;29;20039;-86
2022/11/16 11:44:48;;;;;;;7.22;1.50;;;;;;;;;;4913648;29;20038;-87
2022/11/16 11:47:32;;;;;;;5.30;1.30;;;;;;;;;;4919542;29;20040;-87
2022/11/16 11:50:13;;;;;;;3.45;1.08;;;;;;;;;;4911016;29;20043;-86
2022/11/16 11:52:49;;;;;;;4.72;1.08;;;;;;;;;;4914404;29;20090;-87
2022/11/16 11:55:16;;;;;;;6.78;1.20;;;;;;;;;;4927271;29;20035;-87
2022/11/16 11:57:44;;;;;;;3.20;1.00;;;;;;;;;;4929495;29;20485;-87
2022/11/16 12:00:14;;;;;;;3.50;0.80;;;;;;;;;;4907660;29;20063;-88
2022/11/16 12:02:53;;;;;;;6.05;1.15;;;;;;;;;;4907466;29;20074;-86
2022/11/16 12:05:37;;;;;;;3.78;0.82;;;;;;;;;;4926462;29;20488;-86
2022/11/16 12:08:13;;;;;;;;;;;;;;;;;;4909751;29;20729;-86
2022/11/16 12:10:50;;;;;;;4.65;1.10;;;;;;;;;;4915247;29;19926;-86
2022/11/16 12:13:34;;;;;;;4.45;0.70;;;;;;;;;;4909385;29;20579;-86
2022/11/16 12:16:05;;;;;;;11.38;1.13;;;;;;;;;;4919458;29;20019;-86
2022/11/16 12:18:53;;;;;;;2.35;0.80;;;;;;;;;;4928597;29;20028;-85
2022/11/16 12:21:57;;;;;;;3.88;1.38;;;;;;;;;;4928031;29;20055;-86
2022/11/16 12:24:45;;;;;;;4.50;0.93;;;;;;;;;;4895384;29;20032;-86
2022/11/16 12:27:35;;;;;;;2.72;0.73;;;;;;;;;;4912293;29;20086;-85
2022/11/16 12:30:08;;;;;;;5.50;1.10;;;;;;;;;;4917212;29;20031;-86
2022/11/16 12:32:39;;;;;;;4.30;1.10;;;;;;;;;;4915279;29;20444;-86
2022/11/16 12:35:23;;;;;;;6.13;1.10;;;;;;;;;;4916079;29;20075;-86
2022/11/16 12:38:00;;;;;;;5.40;0.95;;;;;;;;;;4928762;29;20024;-86
2022/11/16 12:41:00;;;;;;;3.53;0.90;;;;;;;;;;4912418;29;20365;-86
2022/11/16 12:43:34;;;;;;;2.75;0.93;;;;;;;;;;4914359;29;20031;-85
2022/11/16 12:46:30;;;;;;;4.63;1.20;;;;;;;;;;4918692;29;20516;-86
2022/11/16 12:49:36;;;;;;;4.63;1.20;;;;;;;;;;4928559;29;20488;-85
2022/11/16 12:52:10;;;;;;;4.68;1.38;;;;;;;;;;4882355;29;20456;-86
2022/11/16 12:54:42;;;;;;;3.03;1.10;;;;;;;;;;4925735;29;20039;-83
2022/11/16 12:57:10;;;;;;;4.40;1.10;;;;;;;;;;4918243;29;20075;-89
2022/11/16 12:59:52;;;;;;;3.42;1.00;;;;;;;;;;4907455;29;20042;-90
2022/11/16 13:02:35;;;;;;;3.58;1.10;;;;;;;;;;4910249;29;20500;-90
2022/11/16 13:05:52;;;;;;;4.15;1.10;;;;;;;;;;4927353;29;20054;-88
2022/11/16 13:08:36;;;;;;;5.45;1.23;;;;;;;;;;4925096;29;20028;-90
2022/11/16 13:11:34;;;;;;;4.65;1.23;;;;;;;;;;4912011;29;20032;-89
2022/11/16 13:14:04;;;;;;;3.53;1.10;;;;;;;;;;4919263;29;20094;-88
2022/11/16 13:17:46;;;;;;;3.78;1.00;;;;;;;;;;4911136;29;20051;-88
2022/11/16 13:20:24;;;;;;;4.85;1.00;;;;;;;;;;4831171;29;20048;-90
2022/11/16 13:23:52;;;;;;;4.80;1.10;;;;;;;;;;4907688;29;20044;-90
2022/11/16 13:26:55;;;;;;;3.85;1.08;;;;;;;;;;4907995;29;20056;-89
2022/11/16 13:33:29;;;;;;;3.65;1.00;;;;;;;;;;4897765;29;20039;-88
2022/11/16 13:53:40;;;;;;;4.55;1.27;;;;;;;;;;4860371;29;20045;-88
2022/11/16 13:56:45;;;;;;;4.45;1.15;;;;;;;;;;4913402;29;20440;-88
2022/11/16 14:00:18;;;;;;;;;;;;;;;;;;;;;
2022/11/16 14:09:45;;;;;;;3.58;0.93;;;;;;;;;;4902890;29;20122;-89
2022/11/16 14:13:03;;;;;;;6.78;1.42;;;;;;;;;;4910370;29;20032;-89
2022/11/16 14:16:39;;;;;;;;;;;;;;;;;;;;;
2022/11/16 14:26:54;;;;;;;3.35;1.35;;;;;;;;;;4828268;29;20045;-88
2022/11/16 14:29:45;;;;;;;3.30;1.30;;;;;;;;;;4835399;29;20167;-88
2022/11/16 14:36:03;;;;;;;3.45;1.30;;;;;;;;;;4904370;29;20054;-88
2022/11/16 14:38:49;;;;;;;5.22;1.10;;;;;;;;;;4893045;29;20087;-88
2022/11/16 14:41:21;;;;;;;4.50;1.10;;;;;;;;;;4897572;29;20031;-87
2022/11/16 14:43:52;;;;;;;5.65;1.30;;;;;;;;;;4911889;29;20083;-88
2022/11/16 14:46:27;;;;;;;3.58;1.27;;;;;;;;;;4912650;29;20098;-88
2022/11/16 14:49:57;;;;;;;6.95;1.38;;;;;;;;;;4908579;29;20473;-89
2022/11/16 14:53:13;;;;;;;;;;;;;;;;;;;;;
2022/11/16 15:15:04;;;;;;;7.22;1.40;;;;;;;;;;5131809;23;20048;-90
2022/11/16 15:17:32;;;;;;;3.72;0.98;;;;;;;;;;4916296;29;20123;-89
2022/11/16 15:20:19;;;;;;;5.57;1.02;;;;;;;;;;4912372;29;20031;-88
2022/11/16 15:22:49;;;;;;;4.47;1.45;;;;;;;;;;4917375;29;20504;-90
2022/11/16 15:25:31;;;;;;;6.25;1.20;;;;;;;;;;4914179;29;20027;-90
2022/11/16 15:28:12;;;;;;;3.80;1.27;;;;;;;;;;4927697;29;20657;-90
2022/11/16 15:30:46;;;;;;;5.95;1.40;;;;;;;;;;4916849;29;20040;-89
2022/11/16 15:33:19;;;;;;;4.60;1.02;;;;;;;;;;4913398;29;20063;-90
2022/11/16 15:35:46;;;;;;;;;;;;;;;;;;4913583;29;20028;-89
2022/11/16 15:38:16;;;;;;;4.63;1.35;;;;;;;;;;4941284;23;20380;-90
2022/11/16 15:40:47;;;;;;;3.20;1.20;;;;;;;;;;4912188;29;20032;-89
2022/11/16 15:43:16;;;;;;;4.32;1.23;;;;;;;;;;4894466;29;20032;-89
2022/11/16 15:45:42;;;;;;;3.47;1.30;;;;;;;;;;4909466;29;20035;-89
2022/11/16 15:48:14;;;;;;;3.17;1.15;;;;;;;;;;4892936;29;20032;-90
2022/11/16 15:50:57;;;;;;;7.85;1.27;;;;;;;;;;4908366;29;20095;-90
2022/11/16 15:53:53;;;;;;;6.35;1.10;;;;;;;;;;4916388;29;20040;-89
2022/11/16 15:56:24;;;;;;;3.65;1.05;;;;;;;;;;4901620;29;20437;-91
2022/11/16 15:58:51;;;;;;;6.80;2.00;;;;;;;;;;4913876;29;20043;-91
2022/11/16 16:01:24;;;;;;;4.55;1.27;;;;;;;;;;4911735;29;20495;-91
2022/11/16 16:04:01;;;;;;;5.25;1.20;;;;;;;;;;4905327;29;20035;-90
2022/11/16 16:06:53;;;;;;;6.50;1.88;;;;;;;;;;4912269;29;20035;-89
2022/11/16 16:09:35;;;;;;;8.85;1.50;;;;;;;;;;4895651;29;20146;-90
2022/11/16 16:12:22;;;;;;;8.20;1.65;;;;;;;;;;4907984;29;20048;-91
2022/11/16 16:14:51;;;;;;;3.58;1.52;;;;;;;;;;4897885;29;20039;-89
2022/11/16 16:17:32;;;;;;;6.07;1.60;;;;;;;;;;4913280;29;20108;-91
2022/11/16 16:20:16;;;;;;;6.38;1.55;;;;;;;;;;4910976;29;20035;-90
2022/11/16 16:22:46;;;;;;;5.80;1.20;;;;;;;;;;4898566;29;20039;-90
2022/11/16 16:25:30;;;;;;;6.97;1.75;;;;;;;;;;4913079;29;20047;-91
2022/11/16 16:35:44;;;;;;;9.73;1.88;;;;;;;;;;4833411;29;20533;-90
2022/11/16 16:38:12;;;;;;;5.35;1.85;;;;;;;;;;4825751;29;20050;-84
2022/11/16 16:40:38;;;;;;;6.82;1.88;;;;;;;;;;4892169;29;20143;-83
2022/11/16 16:43:03;;;;;;;10.55;2.05;;;;;;;;;;4891496;29;20434;-84
2022/11/16 16:45:37;;;;;;;6.25;1.70;;;;;;;;;;4907166;29;20046;-84
2022/11/16 16:48:04;;;;;;;4.90;1.42;;;;;;;;;;4907950;29;20441;-84
2022/11/16 16:50:29;;;;;;;4.90;1.38;;;;;;;;;;4894137;29;20143;-84
2022/11/16 16:52:55;;;;;;;5.07;1.60;;;;;;;;;;4909797;29;20165;-84
2022/11/16 16:55:21;;;;;;;5.63;1.83;;;;;;;;;;4910322;29;20491;-84
2022/11/16 16:57:49;;;;;;;2.90;1.30;;;;;;;;;;4909025;29;20569;-86
2022/11/16 17:00:16;;;;;;;6.72;2.15;;;;;;;;;;4915128;29;20505;-84
2022/11/16 17:02:41;;;;;;;3.72;1.73;;;;;;;;;;4895594;29;20537;-84
2022/11/16 17:05:07;;;;;;;6.43;1.55;;;;;;;;;;4907099;29;20029;-83
2022/11/16 17:07:33;;;;;;;7.70;1.80;;;;;;;;;;4909743;29;20035;-84
2022/11/16 17:09:58;;;;;;;6.82;2.22;;;;;;;;;;4911959;29;20047;-84
2022/11/16 17:12:24;;;;;;;7.30;2.45;;;;;;;;;;4895502;29;20031;-84
2022/11/16 17:14:52;;;;;;;6.80;2.05;;;;;;;;;;4905791;29;20032;-85
2022/11/16 17:17:19;;;;;;;8.43;2.80;;;;;;;;;;4911355;29;20025;-84
2022/11/16 17:19:45;;;;;;;8.27;2.53;;;;;;;;;;4913630;29;20515;-84
2022/11/16 17:22:11;;;;;;;4.90;2.08;;;;;;;;;;4895313;29;20032;-84
2022/11/16 17:24:36;;;;;;;5.85;1.98;;;;;;;;;;4906967;29;20029;-84
2022/11/16 17:27:02;;;;;;;5.80;1.88;;;;;;;;;;4912382;29;20485;-84
2022/11/16 17:29:27;;;;;;;4.65;1.95;;;;;;;;;;4913274;29;20079;-84
2022/11/16 17:31:53;;;;;;;4.75;1.65;;;;;;;;;;4908265;29;20110;-83
2022/11/16 17:34:18;;;;;;;5.82;1.70;;;;;;;;;;4909345;29;20032;-84
2022/11/16 17:36:44;;;;;;;5.50;1.77;;;;;;;;;;4911217;29;20040;-84
2022/11/16 17:39:09;;;;;;;6.82;1.98;;;;;;;;;;4909587;29;20481;-84
2022/11/16 17:41:35;;;;;;;2.67;1.45;;;;;;;;;;4911464;29;20481;-83
2022/11/16 17:44:03;;;;;;;3.55;1.58;;;;;;;;;;4908278;29;20486;-84
2022/11/16 17:46:28;;;;;;;4.65;1.73;;;;;;;;;;4908866;29;20473;-84
2022/11/16 17:48:54;;;;;;;7.28;1.70;;;;;;;;;;4899528;29;20059;-83
2022/11/16 17:51:22;;;;;;;3.75;1.60;;;;;;;;;;4911761;29;20425;-83
2022/11/16 17:53:51;;;;;;;5.18;2.03;;;;;;;;;;4912222;29;20397;-83
2022/11/16 17:56:22;;;;;;;7.20;1.95;;;;;;;;;;4904772;29;20080;-85
2022/11/16 17:58:51;;;;;;;4.85;1.50;;;;;;;;;;4910876;29;20580;-83
2022/11/16 18:01:17;;;;;;;4.65;2.10;;;;;;;;;;4904423;29;20036;-83